createdAt,value
2018-01-19T00:02:01.000Z,994.494
2018-01-19T00:12:01.000Z,994.605
2018-01-19T00:22:01.000Z,994.617
2018-01-19T00:32:01.000Z,994.632
2018-01-19T00:42:01.000Z,994.578
2018-01-19T00:52:01.000Z,994.522
2018-01-19T01:02:01.000Z,994.63
2018-01-19T01:12:01.000Z,994.673
2018-01-19T01:22:01.000Z,994.747
2018-01-19T01:32:01.000Z,994.712
2018-01-19T01:42:01.000Z,994.663
2018-01-19T01:52:01.000Z,994.686
2018-01-19T02:02:01.000Z,994.638
2018-01-19T02:12:01.000Z,994.666
2018-01-19T02:22:01.000Z,994.689
2018-01-19T02:32:01.000Z,994.711
2018-01-19T02:42:01.000Z,994.815
2018-01-19T02:52:02.000Z,994.874
2018-01-19T03:02:02.000Z,994.841
2018-01-19T03:12:02.000Z,994.912
2018-01-19T03:22:02.000Z,994.921
2018-01-19T03:32:02.000Z,995.029
2018-01-19T03:42:02.000Z,995.176
2018-01-19T03:52:02.000Z,995.245
2018-01-19T04:02:02.000Z,995.359
2018-01-19T04:12:02.000Z,995.456
2018-01-19T04:22:02.000Z,995.665
2018-01-19T04:32:02.000Z,995.766
2018-01-19T04:42:02.000Z,995.882
2018-01-19T04:52:02.000Z,995.96
2018-01-19T05:02:02.000Z,996.106
2018-01-19T05:12:02.000Z,996.216
2018-01-19T05:22:02.000Z,996.294
2018-01-19T05:32:02.000Z,996.368
2018-01-19T05:42:02.000Z,996.393
2018-01-19T05:52:02.000Z,996.485
2018-01-19T06:02:02.000Z,996.616
2018-01-19T06:12:02.000Z,996.656
2018-01-19T06:22:05.000Z,996.844
2018-01-19T06:32:02.000Z,996.917
2018-01-19T06:42:02.000Z,997.074
2018-01-19T06:52:02.000Z,997.174
2018-01-19T07:02:02.000Z,997.331
2018-01-19T07:12:02.000Z,997.437
2018-01-19T07:22:02.000Z,997.592
2018-01-19T07:32:02.000Z,997.743
2018-01-19T07:42:02.000Z,998.005
2018-01-19T07:52:02.000Z,998.146
2018-01-19T08:02:02.000Z,998.323
2018-01-19T08:12:02.000Z,998.501
2018-01-19T08:22:02.000Z,998.606
2018-01-19T08:32:02.000Z,998.7
2018-01-19T08:42:02.000Z,998.779
2018-01-19T08:52:02.000Z,998.859
2018-01-19T09:02:02.000Z,998.976
2018-01-19T09:12:02.000Z,999.041
2018-01-19T09:22:03.000Z,999.18
2018-01-19T09:32:02.000Z,999.357
2018-01-19T09:42:02.000Z,999.488
2018-01-19T09:52:02.000Z,999.642
2018-01-19T10:02:03.000Z,999.74
2018-01-19T10:12:02.000Z,999.793
2018-01-19T10:22:02.000Z,999.86
2018-01-19T10:32:02.000Z,999.871
2018-01-19T10:42:02.000Z,999.952
2018-01-19T10:52:02.000Z,999.904
2018-01-19T11:02:03.000Z,999.971
2018-01-19T11:12:03.000Z,999.98
2018-01-19T11:22:06.000Z,999.902
2018-01-19T11:32:03.000Z,999.815
2018-01-19T11:42:03.000Z,999.754
2018-01-19T11:52:03.000Z,999.847
2018-01-19T12:02:03.000Z,999.85
2018-01-19T12:12:03.000Z,999.816
2018-01-19T12:22:03.000Z,999.752
2018-01-19T12:32:03.000Z,999.775
2018-01-19T12:42:03.000Z,999.786
2018-01-19T12:52:03.000Z,999.699
2018-01-19T13:02:03.000Z,999.679
2018-01-19T13:12:03.000Z,999.717
2018-01-19T13:22:05.000Z,999.7
2018-01-19T13:32:03.000Z,999.84
2018-01-19T13:42:03.000Z,999.936
2018-01-19T13:52:03.000Z,999.944
2018-01-19T14:02:03.000Z,999.958
2018-01-19T14:12:03.000Z,999.969
2018-01-19T14:22:03.000Z,1000.054
2018-01-19T14:32:03.000Z,1000.015
2018-01-19T14:42:03.000Z,1000.057
2018-01-19T14:52:03.000Z,1000.061
2018-01-19T15:02:03.000Z,1000.125
2018-01-19T15:12:03.000Z,1000.115
2018-01-19T15:22:03.000Z,1000.165
2018-01-19T15:32:03.000Z,1000.14
2018-01-19T15:42:03.000Z,1000.115
2018-01-19T15:52:03.000Z,1000.011
2018-01-19T16:02:03.000Z,1000.036
2018-01-19T16:12:03.000Z,999.986
2018-01-19T16:22:05.000Z,1000.086
2018-01-19T16:32:03.000Z,999.918
2018-01-19T16:42:03.000Z,1000.211
2018-01-19T16:52:03.000Z,1000.16
2018-01-19T17:02:03.000Z,1000.168
2018-01-19T17:12:03.000Z,1000.34
2018-01-19T17:22:03.000Z,1000.528
2018-01-19T17:32:04.000Z,1000.545
2018-01-19T17:42:03.000Z,1000.418
2018-01-19T17:52:03.000Z,1000.444
2018-01-19T18:02:03.000Z,1000.461
2018-01-19T18:12:03.000Z,1000.512
2018-01-19T18:22:03.000Z,1000.436
2018-01-19T18:32:07.000Z,1000.418
2018-01-19T18:42:04.000Z,1000.382
2018-01-19T18:52:04.000Z,1000.385
2018-01-19T19:02:03.000Z,1000.319
2018-01-19T19:12:04.000Z,1000.244
2018-01-19T19:32:04.000Z,1000.366
2018-01-19T19:42:04.000Z,1000.375
2018-01-19T19:52:04.000Z,1000.331
2018-01-19T20:12:04.000Z,1000.334
2018-01-19T20:22:04.000Z,1000.418
2018-01-19T20:32:04.000Z,1000.427
2018-01-19T20:42:07.000Z,1000.457
2018-01-19T20:52:04.000Z,1000.533
2018-01-19T21:02:04.000Z,1000.523
2018-01-19T21:12:04.000Z,1000.544
2018-01-19T21:22:04.000Z,1000.577
2018-01-19T21:32:04.000Z,1000.577
2018-01-19T21:42:04.000Z,1000.529
2018-01-19T21:52:04.000Z,1000.454
2018-01-19T22:02:04.000Z,1000.516
2018-01-19T22:12:04.000Z,1000.501
2018-01-19T22:22:04.000Z,1000.554
2018-01-19T22:32:04.000Z,1000.608
2018-01-19T22:42:05.000Z,1000.563
2018-01-19T22:52:04.000Z,1000.559
2018-01-19T23:02:04.000Z,1000.669
2018-01-19T23:12:04.000Z,1000.58
2018-01-19T23:22:04.000Z,1000.552
2018-01-19T23:32:04.000Z,1000.542
2018-01-19T23:42:04.000Z,1000.461
2018-01-19T23:52:04.000Z,1000.515
